sensor_id;sensor_type;location;lat;lon;timestamp;P1;durP1;ratioP1;P2;durP2;ratioP2
73158;SDS011;61370;48.594;10.202;2022-08-19T00:02:16;14.20;;;10.60;;
73158;SDS011;61370;48.594;10.202;2022-08-19T00:04:42;14.18;;;10.85;;
73158;SDS011;61370;48.594;10.202;2022-08-19T00:07:09;14.38;;;11.20;;
73158;SDS011;61370;48.594;10.202;2022-08-19T00:09:35;15.80;;;10.65;;
73158;SDS011;61370;48.594;10.202;2022-08-19T00:12:02;12.68;;;10.25;;
73158;SDS011;61370;48.594;10.202;2022-08-19T00:14:29;14.68;;;11.20;;
73158;SDS011;61370;48.594;10.202;2022-08-19T00:16:59;15.77;;;11.02;;
73158;SDS011;61370;48.594;10.202;2022-08-19T00:19:26;15.45;;;11.27;;
73158;SDS011;61370;48.594;10.202;2022-08-19T00:21:53;15.75;;;11.55;;
73158;SDS011;61370;48.594;10.202;2022-08-19T00:24:22;15.98;;;11.13;;
73158;SDS011;61370;48.594;10.202;2022-08-19T00:26:48;14.50;;;10.75;;
73158;SDS011;61370;48.594;10.202;2022-08-19T00:29:17;15.32;;;11.02;;
73158;SDS011;61370;48.594;10.202;2022-08-19T00:31:44;14.60;;;10.68;;
73158;SDS011;61370;48.594;10.202;2022-08-19T00:34:12;16.00;;;10.68;;
73158;SDS011;61370;48.594;10.202;2022-08-19T00:36:40;15.15;;;11.07;;
73158;SDS011;61370;48.594;10.202;2022-08-19T00:39:07;15.55;;;11.25;;
73158;SDS011;61370;48.594;10.202;2022-08-19T00:41:34;13.70;;;10.98;;
73158;SDS011;61370;48.594;10.202;2022-08-19T00:46:29;14.52;;;11.55;;
73158;SDS011;61370;48.594;10.202;2022-08-19T00:48:55;16.35;;;12.57;;
73158;SDS011;61370;48.594;10.202;2022-08-19T00:51:24;17.02;;;12.43;;
73158;SDS011;61370;48.594;10.202;2022-08-19T00:53:52;15.63;;;11.90;;
73158;SDS011;61370;48.594;10.202;2022-08-19T00:56:20;17.25;;;12.40;;
73158;SDS011;61370;48.594;10.202;2022-08-19T00:58:48;21.02;;;13.00;;
73158;SDS011;61370;48.594;10.202;2022-08-19T01:01:15;16.27;;;12.45;;
73158;SDS011;61370;48.594;10.202;2022-08-19T01:03:41;17.02;;;12.93;;
73158;SDS011;61370;48.594;10.202;2022-08-19T01:06:08;16.88;;;12.57;;
73158;SDS011;61370;48.594;10.202;2022-08-19T01:08:34;16.98;;;12.70;;
73158;SDS011;61370;48.594;10.202;2022-08-19T01:11:02;20.30;;;13.57;;
73158;SDS011;61370;48.594;10.202;2022-08-19T01:13:29;18.80;;;14.40;;
73158;SDS011;61370;48.594;10.202;2022-08-19T01:15:58;18.95;;;13.90;;
73158;SDS011;61370;48.594;10.202;2022-08-19T01:18:27;20.35;;;15.27;;
73158;SDS011;61370;48.594;10.202;2022-08-19T01:20:55;19.65;;;14.52;;
73158;SDS011;61370;48.594;10.202;2022-08-19T01:23:24;21.10;;;15.50;;
73158;SDS011;61370;48.594;10.202;2022-08-19T01:26:14;21.77;;;16.00;;
73158;SDS011;61370;48.594;10.202;2022-08-19T01:28:48;21.23;;;15.43;;
73158;SDS011;61370;48.594;10.202;2022-08-19T01:31:22;23.33;;;17.23;;
73158;SDS011;61370;48.594;10.202;2022-08-19T01:33:51;23.38;;;16.08;;
73158;SDS011;61370;48.594;10.202;2022-08-19T01:36:27;23.15;;;16.95;;
73158;SDS011;61370;48.594;10.202;2022-08-19T01:38:56;24.42;;;17.67;;
73158;SDS011;61370;48.594;10.202;2022-08-19T01:41:24;24.23;;;16.73;;
73158;SDS011;61370;48.594;10.202;2022-08-19T01:43:54;24.63;;;17.20;;
73158;SDS011;61370;48.594;10.202;2022-08-19T01:46:20;23.45;;;17.00;;
73158;SDS011;61370;48.594;10.202;2022-08-19T01:48:46;27.73;;;17.70;;
73158;SDS011;61370;48.594;10.202;2022-08-19T01:51:13;23.52;;;17.13;;
73158;SDS011;61370;48.594;10.202;2022-08-19T01:53:40;24.95;;;17.88;;
73158;SDS011;61370;48.594;10.202;2022-08-19T01:56:07;24.85;;;18.30;;
73158;SDS011;61370;48.594;10.202;2022-08-19T01:58:35;25.58;;;18.92;;
73158;SDS011;61370;48.594;10.202;2022-08-19T02:01:04;27.92;;;19.10;;
73158;SDS011;61370;48.594;10.202;2022-08-19T02:03:31;29.38;;;18.98;;
73158;SDS011;61370;48.594;10.202;2022-08-19T02:05:59;27.77;;;18.98;;
73158;SDS011;61370;48.594;10.202;2022-08-19T02:08:29;25.75;;;17.90;;
73158;SDS011;61370;48.594;10.202;2022-08-19T02:10:56;26.05;;;19.00;;
73158;SDS011;61370;48.594;10.202;2022-08-19T02:13:23;28.63;;;19.45;;
73158;SDS011;61370;48.594;10.202;2022-08-19T02:15:53;27.98;;;18.25;;
73158;SDS011;61370;48.594;10.202;2022-08-19T02:18:19;27.20;;;18.35;;
73158;SDS011;61370;48.594;10.202;2022-08-19T02:20:46;28.08;;;18.30;;
73158;SDS011;61370;48.594;10.202;2022-08-19T02:23:15;27.15;;;18.45;;
73158;SDS011;61370;48.594;10.202;2022-08-19T02:25:44;27.67;;;18.05;;
73158;SDS011;61370;48.594;10.202;2022-08-19T02:28:11;28.15;;;19.23;;
73158;SDS011;61370;48.594;10.202;2022-08-19T02:30:37;27.25;;;19.05;;
73158;SDS011;61370;48.594;10.202;2022-08-19T02:33:04;24.70;;;17.75;;
73158;SDS011;61370;48.594;10.202;2022-08-19T02:35:31;27.73;;;17.98;;
73158;SDS011;61370;48.594;10.202;2022-08-19T02:37:57;24.60;;;17.73;;
73158;SDS011;61370;48.594;10.202;2022-08-19T02:40:47;27.92;;;17.20;;
73158;SDS011;61370;48.594;10.202;2022-08-19T02:43:18;28.13;;;17.38;;
73158;SDS011;61370;48.594;10.202;2022-08-19T02:45:46;26.30;;;17.75;;
73158;SDS011;61370;48.594;10.202;2022-08-19T02:48:18;26.67;;;17.70;;
73158;SDS011;61370;48.594;10.202;2022-08-19T02:50:46;28.77;;;18.15;;
73158;SDS011;61370;48.594;10.202;2022-08-19T02:53:14;28.10;;;18.67;;
73158;SDS011;61370;48.594;10.202;2022-08-19T02:55:44;28.85;;;19.25;;
73158;SDS011;61370;48.594;10.202;2022-08-19T02:58:12;30.08;;;18.95;;
73158;SDS011;61370;48.594;10.202;2022-08-19T03:00:50;27.55;;;18.95;;
73158;SDS011;61370;48.594;10.202;2022-08-19T03:03:19;28.23;;;18.25;;
73158;SDS011;61370;48.594;10.202;2022-08-19T03:05:46;28.65;;;18.55;;
73158;SDS011;61370;48.594;10.202;2022-08-19T03:08:14;28.00;;;18.35;;
73158;SDS011;61370;48.594;10.202;2022-08-19T03:10:42;27.38;;;19.02;;
73158;SDS011;61370;48.594;10.202;2022-08-19T03:13:11;27.02;;;18.67;;
73158;SDS011;61370;48.594;10.202;2022-08-19T03:15:40;28.48;;;19.80;;
73158;SDS011;61370;48.594;10.202;2022-08-19T03:18:08;27.58;;;18.75;;
73158;SDS011;61370;48.594;10.202;2022-08-19T03:20:42;32.15;;;20.35;;
73158;SDS011;61370;48.594;10.202;2022-08-19T03:23:15;27.33;;;18.95;;
73158;SDS011;61370;48.594;10.202;2022-08-19T03:25:43;30.25;;;19.27;;
73158;SDS011;61370;48.594;10.202;2022-08-19T03:28:11;28.70;;;18.75;;
73158;SDS011;61370;48.594;10.202;2022-08-19T03:30:39;33.30;;;20.92;;
73158;SDS011;61370;48.594;10.202;2022-08-19T03:33:07;30.83;;;19.77;;
73158;SDS011;61370;48.594;10.202;2022-08-19T03:35:34;28.35;;;19.10;;
73158;SDS011;61370;48.594;10.202;2022-08-19T03:38:05;32.17;;;19.00;;
73158;SDS011;61370;48.594;10.202;2022-08-19T03:40:35;30.92;;;20.55;;
73158;SDS011;61370;48.594;10.202;2022-08-19T03:43:02;33.88;;;20.70;;
73158;SDS011;61370;48.594;10.202;2022-08-19T03:45:29;29.73;;;18.63;;
73158;SDS011;61370;48.594;10.202;2022-08-19T03:47:55;30.00;;;19.98;;
73158;SDS011;61370;48.594;10.202;2022-08-19T03:50:22;30.95;;;20.27;;
73158;SDS011;61370;48.594;10.202;2022-08-19T03:52:49;32.50;;;20.33;;
73158;SDS011;61370;48.594;10.202;2022-08-19T03:55:17;30.25;;;19.92;;
73158;SDS011;61370;48.594;10.202;2022-08-19T03:57:44;29.23;;;19.40;;
73158;SDS011;61370;48.594;10.202;2022-08-19T04:00:12;30.40;;;20.05;;
73158;SDS011;61370;48.594;10.202;2022-08-19T04:02:39;31.48;;;20.15;;
73158;SDS011;61370;48.594;10.202;2022-08-19T04:05:07;32.88;;;21.13;;
73158;SDS011;61370;48.594;10.202;2022-08-19T04:07:34;28.90;;;20.35;;
73158;SDS011;61370;48.594;10.202;2022-08-19T04:10:02;29.58;;;19.88;;
73158;SDS011;61370;48.594;10.202;2022-08-19T04:12:28;29.05;;;18.17;;
73158;SDS011;61370;48.594;10.202;2022-08-19T04:14:55;29.20;;;18.60;;
73158;SDS011;61370;48.594;10.202;2022-08-19T04:17:21;29.25;;;19.40;;
73158;SDS011;61370;48.594;10.202;2022-08-19T04:19:48;27.42;;;18.13;;
73158;SDS011;61370;48.594;10.202;2022-08-19T04:22:14;29.00;;;18.58;;
73158;SDS011;61370;48.594;10.202;2022-08-19T04:24:41;28.50;;;17.92;;
73158;SDS011;61370;48.594;10.202;2022-08-19T04:27:07;29.05;;;17.95;;
73158;SDS011;61370;48.594;10.202;2022-08-19T04:29:34;26.50;;;17.48;;
73158;SDS011;61370;48.594;10.202;2022-08-19T04:32:00;25.08;;;16.98;;
73158;SDS011;61370;48.594;10.202;2022-08-19T04:34:28;26.42;;;16.92;;
73158;SDS011;61370;48.594;10.202;2022-08-19T04:36:56;28.67;;;17.63;;
73158;SDS011;61370;48.594;10.202;2022-08-19T04:39:29;27.52;;;18.25;;
73158;SDS011;61370;48.594;10.202;2022-08-19T04:42:16;26.58;;;17.58;;
73158;SDS011;61370;48.594;10.202;2022-08-19T04:45:02;28.60;;;17.20;;
73158;SDS011;61370;48.594;10.202;2022-08-19T04:47:30;27.30;;;18.27;;
73158;SDS011;61370;48.594;10.202;2022-08-19T04:49:57;24.70;;;16.60;;
73158;SDS011;61370;48.594;10.202;2022-08-19T04:52:23;25.92;;;16.67;;
73158;SDS011;61370;48.594;10.202;2022-08-19T04:54:50;27.45;;;16.80;;
73158;SDS011;61370;48.594;10.202;2022-08-19T04:57:16;26.40;;;16.73;;
73158;SDS011;61370;48.594;10.202;2022-08-19T04:59:43;26.77;;;17.13;;
73158;SDS011;61370;48.594;10.202;2022-08-19T05:02:09;26.50;;;16.30;;
73158;SDS011;61370;48.594;10.202;2022-08-19T05:04:36;25.30;;;16.52;;
73158;SDS011;61370;48.594;10.202;2022-08-19T05:07:05;25.05;;;16.35;;
73158;SDS011;61370;48.594;10.202;2022-08-19T05:09:33;27.15;;;17.30;;
73158;SDS011;61370;48.594;10.202;2022-08-19T05:12:00;25.33;;;15.90;;
73158;SDS011;61370;48.594;10.202;2022-08-19T05:14:27;25.30;;;16.42;;
73158;SDS011;61370;48.594;10.202;2022-08-19T05:16:54;24.88;;;16.15;;
73158;SDS011;61370;48.594;10.202;2022-08-19T05:19:21;26.58;;;17.40;;
73158;SDS011;61370;48.594;10.202;2022-08-19T05:22:06;24.15;;;16.50;;
73158;SDS011;61370;48.594;10.202;2022-08-19T05:24:51;26.55;;;17.20;;
73158;SDS011;61370;48.594;10.202;2022-08-19T05:27:18;27.48;;;17.95;;
73158;SDS011;61370;48.594;10.202;2022-08-19T05:29:45;27.75;;;18.08;;
73158;SDS011;61370;48.594;10.202;2022-08-19T05:32:11;26.23;;;16.85;;
73158;SDS011;61370;48.594;10.202;2022-08-19T05:34:38;25.38;;;17.35;;
73158;SDS011;61370;48.594;10.202;2022-08-19T05:37:04;26.52;;;17.50;;
73158;SDS011;61370;48.594;10.202;2022-08-19T05:39:32;27.90;;;18.10;;
73158;SDS011;61370;48.594;10.202;2022-08-19T05:42:01;25.98;;;17.98;;
73158;SDS011;61370;48.594;10.202;2022-08-19T05:47:04;27.98;;;16.65;;
73158;SDS011;61370;48.594;10.202;2022-08-19T05:49:32;27.67;;;16.83;;
73158;SDS011;61370;48.594;10.202;2022-08-19T05:52:04;26.98;;;17.30;;
73158;SDS011;61370;48.594;10.202;2022-08-19T05:54:34;28.00;;;18.02;;
73158;SDS011;61370;48.594;10.202;2022-08-19T05:57:02;30.63;;;18.17;;
73158;SDS011;61370;48.594;10.202;2022-08-19T05:59:34;31.65;;;18.58;;
73158;SDS011;61370;48.594;10.202;2022-08-19T06:02:03;26.00;;;16.42;;
73158;SDS011;61370;48.594;10.202;2022-08-19T06:04:33;29.73;;;17.88;;
73158;SDS011;61370;48.594;10.202;2022-08-19T06:07:01;27.27;;;16.17;;
73158;SDS011;61370;48.594;10.202;2022-08-19T06:09:29;28.38;;;17.42;;
73158;SDS011;61370;48.594;10.202;2022-08-19T06:11:58;29.33;;;17.27;;
73158;SDS011;61370;48.594;10.202;2022-08-19T06:14:31;27.23;;;17.45;;
73158;SDS011;61370;48.594;10.202;2022-08-19T06:17:01;26.38;;;16.20;;
73158;SDS011;61370;48.594;10.202;2022-08-19T06:19:28;25.13;;;16.63;;
73158;SDS011;61370;48.594;10.202;2022-08-19T06:21:57;24.35;;;15.52;;
73158;SDS011;61370;48.594;10.202;2022-08-19T06:24:26;25.13;;;16.15;;
73158;SDS011;61370;48.594;10.202;2022-08-19T06:27:02;26.60;;;17.40;;
73158;SDS011;61370;48.594;10.202;2022-08-19T06:29:29;24.27;;;14.98;;
73158;SDS011;61370;48.594;10.202;2022-08-19T06:31:56;26.27;;;17.08;;
73158;SDS011;61370;48.594;10.202;2022-08-19T06:34:24;25.48;;;16.50;;
73158;SDS011;61370;48.594;10.202;2022-08-19T06:36:54;26.77;;;16.67;;
73158;SDS011;61370;48.594;10.202;2022-08-19T06:39:22;25.58;;;16.40;;
73158;SDS011;61370;48.594;10.202;2022-08-19T06:41:51;23.50;;;15.45;;
73158;SDS011;61370;48.594;10.202;2022-08-19T06:44:20;25.40;;;15.38;;
73158;SDS011;61370;48.594;10.202;2022-08-19T06:46:48;25.17;;;16.42;;
73158;SDS011;61370;48.594;10.202;2022-08-19T06:49:16;26.08;;;17.02;;
73158;SDS011;61370;48.594;10.202;2022-08-19T06:51:46;25.73;;;16.38;;
73158;SDS011;61370;48.594;10.202;2022-08-19T06:54:14;25.52;;;16.63;;
73158;SDS011;61370;48.594;10.202;2022-08-19T06:56:42;26.65;;;16.52;;
73158;SDS011;61370;48.594;10.202;2022-08-19T06:59:10;29.02;;;17.30;;
73158;SDS011;61370;48.594;10.202;2022-08-19T07:01:39;26.52;;;16.20;;
73158;SDS011;61370;48.594;10.202;2022-08-19T07:04:12;27.05;;;16.73;;
73158;SDS011;61370;48.594;10.202;2022-08-19T07:06:43;26.83;;;17.50;;
73158;SDS011;61370;48.594;10.202;2022-08-19T07:09:13;27.45;;;15.93;;
73158;SDS011;61370;48.594;10.202;2022-08-19T07:11:50;30.05;;;17.30;;
73158;SDS011;61370;48.594;10.202;2022-08-19T07:14:20;29.10;;;17.25;;
73158;SDS011;61370;48.594;10.202;2022-08-19T07:16:49;27.88;;;17.33;;
73158;SDS011;61370;48.594;10.202;2022-08-19T07:19:18;29.58;;;17.90;;
73158;SDS011;61370;48.594;10.202;2022-08-19T07:21:46;28.90;;;16.40;;
73158;SDS011;61370;48.594;10.202;2022-08-19T07:24:19;29.73;;;17.70;;
73158;SDS011;61370;48.594;10.202;2022-08-19T07:26:50;28.67;;;16.67;;
73158;SDS011;61370;48.594;10.202;2022-08-19T07:29:19;28.92;;;17.73;;
73158;SDS011;61370;48.594;10.202;2022-08-19T07:31:49;25.90;;;16.40;;
73158;SDS011;61370;48.594;10.202;2022-08-19T07:34:17;26.30;;;17.30;;
73158;SDS011;61370;48.594;10.202;2022-08-19T07:36:44;27.23;;;16.95;;
73158;SDS011;61370;48.594;10.202;2022-08-19T07:39:19;27.35;;;16.83;;
73158;SDS011;61370;48.594;10.202;2022-08-19T07:41:51;27.40;;;17.23;;
73158;SDS011;61370;48.594;10.202;2022-08-19T07:44:18;33.78;;;17.23;;
73158;SDS011;61370;48.594;10.202;2022-08-19T07:46:49;31.63;;;18.20;;
73158;SDS011;61370;48.594;10.202;2022-08-19T07:49:17;26.90;;;16.90;;
73158;SDS011;61370;48.594;10.202;2022-08-19T07:51:46;26.90;;;17.48;;
73158;SDS011;61370;48.594;10.202;2022-08-19T07:54:18;29.85;;;17.40;;
73158;SDS011;61370;48.594;10.202;2022-08-19T07:56:46;26.25;;;16.77;;
73158;SDS011;61370;48.594;10.202;2022-08-19T07:59:12;29.55;;;16.45;;
73158;SDS011;61370;48.594;10.202;2022-08-19T08:01:39;25.20;;;15.48;;
73158;SDS011;61370;48.594;10.202;2022-08-19T08:04:06;27.27;;;17.42;;
73158;SDS011;61370;48.594;10.202;2022-08-19T08:06:52;27.05;;;16.33;;
73158;SDS011;61370;48.594;10.202;2022-08-19T08:09:39;26.52;;;16.33;;
73158;SDS011;61370;48.594;10.202;2022-08-19T08:14:38;27.05;;;17.25;;
73158;SDS011;61370;48.594;10.202;2022-08-19T08:17:07;27.55;;;16.70;;
73158;SDS011;61370;48.594;10.202;2022-08-19T08:19:34;24.27;;;16.27;;
73158;SDS011;61370;48.594;10.202;2022-08-19T08:22:02;27.88;;;16.92;;
73158;SDS011;61370;48.594;10.202;2022-08-19T08:24:31;27.98;;;17.63;;
73158;SDS011;61370;48.594;10.202;2022-08-19T08:27:00;26.45;;;16.63;;
73158;SDS011;61370;48.594;10.202;2022-08-19T08:29:27;27.60;;;17.13;;
73158;SDS011;61370;48.594;10.202;2022-08-19T08:31:54;27.77;;;16.98;;
73158;SDS011;61370;48.594;10.202;2022-08-19T08:34:25;29.30;;;18.05;;
73158;SDS011;61370;48.594;10.202;2022-08-19T08:36:53;31.15;;;17.52;;
73158;SDS011;61370;48.594;10.202;2022-08-19T08:39:20;29.05;;;18.67;;
73158;SDS011;61370;48.594;10.202;2022-08-19T08:47:03;27.35;;;16.63;;
73158;SDS011;61370;48.594;10.202;2022-08-19T08:54:35;27.55;;;17.10;;
73158;SDS011;61370;48.594;10.202;2022-08-19T08:57:15;27.42;;;16.75;;
73158;SDS011;61370;48.594;10.202;2022-08-19T08:59:46;28.00;;;17.38;;
73158;SDS011;61370;48.594;10.202;2022-08-19T09:02:17;29.65;;;18.67;;
73158;SDS011;61370;48.594;10.202;2022-08-19T09:04:44;27.58;;;17.70;;
73158;SDS011;61370;48.594;10.202;2022-08-19T09:07:23;28.27;;;17.30;;
73158;SDS011;61370;48.594;10.202;2022-08-19T09:10:02;27.25;;;16.67;;
73158;SDS011;61370;48.594;10.202;2022-08-19T09:15:24;30.35;;;18.33;;
73158;SDS011;61370;48.594;10.202;2022-08-19T09:17:59;26.65;;;17.02;;
73158;SDS011;61370;48.594;10.202;2022-08-19T09:20:28;28.55;;;17.88;;
73158;SDS011;61370;48.594;10.202;2022-08-19T09:22:56;27.83;;;17.80;;
73158;SDS011;61370;48.594;10.202;2022-08-19T09:25:22;27.98;;;17.42;;
73158;SDS011;61370;48.594;10.202;2022-08-19T09:27:50;26.92;;;18.15;;
73158;SDS011;61370;48.594;10.202;2022-08-19T09:30:24;27.42;;;18.20;;
73158;SDS011;61370;48.594;10.202;2022-08-19T09:32:53;26.70;;;17.95;;
73158;SDS011;61370;48.594;10.202;2022-08-19T09:35:21;26.45;;;17.48;;
73158;SDS011;61370;48.594;10.202;2022-08-19T09:37:50;26.67;;;17.45;;
73158;SDS011;61370;48.594;10.202;2022-08-19T09:40:19;28.80;;;17.83;;
73158;SDS011;61370;48.594;10.202;2022-08-19T09:42:46;28.77;;;17.52;;
73158;SDS011;61370;48.594;10.202;2022-08-19T09:45:14;30.98;;;17.65;;
73158;SDS011;61370;48.594;10.202;2022-08-19T09:47:41;27.13;;;17.77;;
73158;SDS011;61370;48.594;10.202;2022-08-19T09:50:09;28.58;;;18.73;;
73158;SDS011;61370;48.594;10.202;2022-08-19T09:52:37;28.67;;;17.65;;
73158;SDS011;61370;48.594;10.202;2022-08-19T09:55:05;25.27;;;16.25;;
73158;SDS011;61370;48.594;10.202;2022-08-19T09:57:32;24.95;;;16.27;;
73158;SDS011;61370;48.594;10.202;2022-08-19T09:59:59;27.15;;;16.38;;
73158;SDS011;61370;48.594;10.202;2022-08-19T10:02:26;30.13;;;18.55;;
73158;SDS011;61370;48.594;10.202;2022-08-19T10:04:52;26.55;;;16.75;;
73158;SDS011;61370;48.594;10.202;2022-08-19T10:07:37;24.85;;;16.92;;
73158;SDS011;61370;48.594;10.202;2022-08-19T10:10:04;25.75;;;18.27;;
73158;SDS011;61370;48.594;10.202;2022-08-19T10:12:33;27.80;;;17.25;;
73158;SDS011;61370;48.594;10.202;2022-08-19T10:15:00;27.92;;;18.40;;
73158;SDS011;61370;48.594;10.202;2022-08-19T10:17:29;27.48;;;17.42;;
73158;SDS011;61370;48.594;10.202;2022-08-19T10:19:55;26.17;;;16.80;;
73158;SDS011;61370;48.594;10.202;2022-08-19T10:22:23;27.25;;;17.58;;
73158;SDS011;61370;48.594;10.202;2022-08-19T10:24:50;29.58;;;18.77;;
73158;SDS011;61370;48.594;10.202;2022-08-19T10:27:19;28.02;;;17.77;;
73158;SDS011;61370;48.594;10.202;2022-08-19T10:29:46;29.00;;;17.88;;
73158;SDS011;61370;48.594;10.202;2022-08-19T10:32:13;28.75;;;18.02;;
73158;SDS011;61370;48.594;10.202;2022-08-19T10:34:40;28.35;;;17.70;;
73158;SDS011;61370;48.594;10.202;2022-08-19T10:37:07;29.50;;;18.48;;
73158;SDS011;61370;48.594;10.202;2022-08-19T10:39:34;29.23;;;18.58;;
73158;SDS011;61370;48.594;10.202;2022-08-19T10:42:05;25.33;;;16.33;;
73158;SDS011;61370;48.594;10.202;2022-08-19T10:44:33;29.33;;;17.60;;
73158;SDS011;61370;48.594;10.202;2022-08-19T10:47:02;26.52;;;18.17;;
73158;SDS011;61370;48.594;10.202;2022-08-19T10:49:30;29.70;;;18.90;;
73158;SDS011;61370;48.594;10.202;2022-08-19T10:51:58;30.05;;;18.05;;
73158;SDS011;61370;48.594;10.202;2022-08-19T10:54:43;29.15;;;18.50;;
73158;SDS011;61370;48.594;10.202;2022-08-19T10:57:32;33.22;;;18.95;;
73158;SDS011;61370;48.594;10.202;2022-08-19T10:59:58;31.42;;;19.33;;
73158;SDS011;61370;48.594;10.202;2022-08-19T11:02:24;29.90;;;19.23;;
73158;SDS011;61370;48.594;10.202;2022-08-19T11:04:51;28.48;;;18.48;;
73158;SDS011;61370;48.594;10.202;2022-08-19T11:07:18;29.35;;;18.65;;
73158;SDS011;61370;48.594;10.202;2022-08-19T11:09:44;30.00;;;19.35;;
73158;SDS011;61370;48.594;10.202;2022-08-19T11:12:13;30.05;;;19.73;;
73158;SDS011;61370;48.594;10.202;2022-08-19T11:14:41;33.75;;;20.30;;
73158;SDS011;61370;48.594;10.202;2022-08-19T11:17:08;30.58;;;18.88;;
73158;SDS011;61370;48.594;10.202;2022-08-19T11:19:35;30.02;;;19.73;;
73158;SDS011;61370;48.594;10.202;2022-08-19T11:22:02;29.65;;;19.52;;
73158;SDS011;61370;48.594;10.202;2022-08-19T11:24:29;31.02;;;18.92;;
73158;SDS011;61370;48.594;10.202;2022-08-19T11:27:00;33.33;;;20.40;;
73158;SDS011;61370;48.594;10.202;2022-08-19T11:29:29;30.65;;;18.88;;
73158;SDS011;61370;48.594;10.202;2022-08-19T11:31:56;31.48;;;18.95;;
73158;SDS011;61370;48.594;10.202;2022-08-19T11:34:24;33.17;;;20.35;;
73158;SDS011;61370;48.594;10.202;2022-08-19T11:36:54;31.35;;;19.55;;
73158;SDS011;61370;48.594;10.202;2022-08-19T11:39:24;30.85;;;19.05;;
73158;SDS011;61370;48.594;10.202;2022-08-19T11:41:54;32.72;;;20.55;;
73158;SDS011;61370;48.594;10.202;2022-08-19T11:44:21;29.35;;;18.80;;
73158;SDS011;61370;48.594;10.202;2022-08-19T11:46:48;31.20;;;18.90;;
73158;SDS011;61370;48.594;10.202;2022-08-19T11:49:15;32.72;;;20.27;;
73158;SDS011;61370;48.594;10.202;2022-08-19T11:51:44;29.35;;;18.27;;
73158;SDS011;61370;48.594;10.202;2022-08-19T11:54:12;30.25;;;19.40;;
73158;SDS011;61370;48.594;10.202;2022-08-19T11:56:40;31.33;;;19.10;;
73158;SDS011;61370;48.594;10.202;2022-08-19T11:59:07;29.05;;;18.73;;
73158;SDS011;61370;48.594;10.202;2022-08-19T12:01:35;27.17;;;19.00;;
73158;SDS011;61370;48.594;10.202;2022-08-19T12:04:01;29.27;;;18.75;;
73158;SDS011;61370;48.594;10.202;2022-08-19T12:06:31;25.25;;;16.77;;
73158;SDS011;61370;48.594;10.202;2022-08-19T12:09:02;26.42;;;17.13;;
73158;SDS011;61370;48.594;10.202;2022-08-19T12:11:31;26.45;;;16.90;;
73158;SDS011;61370;48.594;10.202;2022-08-19T12:13:58;30.98;;;17.33;;
73158;SDS011;61370;48.594;10.202;2022-08-19T12:16:27;29.25;;;18.10;;
73158;SDS011;61370;48.594;10.202;2022-08-19T12:18:55;26.33;;;16.73;;
73158;SDS011;61370;48.594;10.202;2022-08-19T12:21:25;25.73;;;16.67;;
73158;SDS011;61370;48.594;10.202;2022-08-19T12:23:55;24.90;;;16.83;;
73158;SDS011;61370;48.594;10.202;2022-08-19T12:26:24;25.30;;;16.75;;
73158;SDS011;61370;48.594;10.202;2022-08-19T12:28:53;25.95;;;16.55;;
73158;SDS011;61370;48.594;10.202;2022-08-19T12:31:20;25.55;;;15.45;;
73158;SDS011;61370;48.594;10.202;2022-08-19T12:33:46;22.27;;;15.25;;
73158;SDS011;61370;48.594;10.202;2022-08-19T12:36:14;21.50;;;14.25;;
73158;SDS011;61370;48.594;10.202;2022-08-19T12:38:47;22.10;;;13.65;;
73158;SDS011;61370;48.594;10.202;2022-08-19T12:41:17;20.00;;;13.25;;
73158;SDS011;61370;48.594;10.202;2022-08-19T12:43:46;20.27;;;12.57;;
73158;SDS011;61370;48.594;10.202;2022-08-19T12:46:17;19.95;;;13.30;;
73158;SDS011;61370;48.594;10.202;2022-08-19T12:48:45;19.48;;;11.88;;
73158;SDS011;61370;48.594;10.202;2022-08-19T12:51:15;16.88;;;11.32;;
73158;SDS011;61370;48.594;10.202;2022-08-19T12:53:44;14.93;;;10.55;;
73158;SDS011;61370;48.594;10.202;2022-08-19T12:56:11;13.40;;;10.18;;
73158;SDS011;61370;48.594;10.202;2022-08-19T12:58:40;14.25;;;9.93;;
73158;SDS011;61370;48.594;10.202;2022-08-19T13:01:11;15.95;;;10.13;;
73158;SDS011;61370;48.594;10.202;2022-08-19T13:03:39;16.08;;;10.35;;
73158;SDS011;61370;48.594;10.202;2022-08-19T13:06:07;16.48;;;9.98;;
73158;SDS011;61370;48.594;10.202;2022-08-19T13:08:34;14.07;;;9.35;;
73158;SDS011;61370;48.594;10.202;2022-08-19T13:11:14;15.40;;;10.23;;
73158;SDS011;61370;48.594;10.202;2022-08-19T13:13:44;14.95;;;9.68;;
73158;SDS011;61370;48.594;10.202;2022-08-19T13:16:12;13.60;;;9.68;;
73158;SDS011;61370;48.594;10.202;2022-08-19T13:18:39;14.20;;;9.48;;
73158;SDS011;61370;48.594;10.202;2022-08-19T13:21:09;14.40;;;9.18;;
73158;SDS011;61370;48.594;10.202;2022-08-19T13:23:37;13.05;;;9.40;;
73158;SDS011;61370;48.594;10.202;2022-08-19T13:26:05;16.48;;;10.50;;
73158;SDS011;61370;48.594;10.202;2022-08-19T13:28:32;15.45;;;10.13;;
73158;SDS011;61370;48.594;10.202;2022-08-19T13:31:18;13.27;;;9.77;;
73158;SDS011;61370;48.594;10.202;2022-08-19T13:36:35;13.25;;;9.00;;
73158;SDS011;61370;48.594;10.202;2022-08-19T13:39:03;11.20;;;8.00;;
73158;SDS011;61370;48.594;10.202;2022-08-19T13:41:31;10.90;;;7.75;;
73158;SDS011;61370;48.594;10.202;2022-08-19T13:43:59;11.25;;;7.75;;
73158;SDS011;61370;48.594;10.202;2022-08-19T13:46:27;11.95;;;6.97;;
73158;SDS011;61370;48.594;10.202;2022-08-19T13:48:55;12.20;;;8.10;;
73158;SDS011;61370;48.594;10.202;2022-08-19T13:51:22;11.85;;;8.00;;
73158;SDS011;61370;48.594;10.202;2022-08-19T13:53:49;9.82;;;6.82;;
73158;SDS011;61370;48.594;10.202;2022-08-19T13:56:17;8.25;;;5.13;;
73158;SDS011;61370;48.594;10.202;2022-08-19T13:58:45;9.15;;;5.38;;
73158;SDS011;61370;48.594;10.202;2022-08-19T14:01:12;8.73;;;6.00;;
73158;SDS011;61370;48.594;10.202;2022-08-19T14:03:45;8.73;;;5.43;;
73158;SDS011;61370;48.594;10.202;2022-08-19T14:06:11;7.88;;;5.32;;
73158;SDS011;61370;48.594;10.202;2022-08-19T14:08:38;7.93;;;5.68;;
73158;SDS011;61370;48.594;10.202;2022-08-19T14:11:08;8.52;;;5.15;;
73158;SDS011;61370;48.594;10.202;2022-08-19T14:13:35;7.78;;;5.75;;
73158;SDS011;61370;48.594;10.202;2022-08-19T14:16:03;7.50;;;5.50;;
73158;SDS011;61370;48.594;10.202;2022-08-19T14:18:33;8.52;;;5.38;;
73158;SDS011;61370;48.594;10.202;2022-08-19T14:20:59;10.23;;;5.57;;
73158;SDS011;61370;48.594;10.202;2022-08-19T14:23:25;10.25;;;6.13;;
73158;SDS011;61370;48.594;10.202;2022-08-19T14:25:52;9.65;;;6.05;;
73158;SDS011;61370;48.594;10.202;2022-08-19T14:28:22;10.88;;;6.57;;
73158;SDS011;61370;48.594;10.202;2022-08-19T14:30:49;11.95;;;6.25;;
73158;SDS011;61370;48.594;10.202;2022-08-19T14:33:16;8.85;;;7.13;;
73158;SDS011;61370;48.594;10.202;2022-08-19T14:35:42;10.55;;;7.07;;
73158;SDS011;61370;48.594;10.202;2022-08-19T14:38:14;10.85;;;6.93;;
73158;SDS011;61370;48.594;10.202;2022-08-19T14:40:42;10.18;;;7.07;;
73158;SDS011;61370;48.594;10.202;2022-08-19T14:43:08;10.35;;;7.15;;
73158;SDS011;61370;48.594;10.202;2022-08-19T14:45:36;10.40;;;7.38;;